createdAt,value
2024-05-09T00:00:49.341Z,8.52
2024-05-09T00:03:43.642Z,8.47
2024-05-09T00:06:13.426Z,8.33
2024-05-09T00:08:42.720Z,8.31
2024-05-09T00:11:16.107Z,8.21
2024-05-09T00:13:45.297Z,8.38
2024-05-09T00:16:14.037Z,8.43
2024-05-09T00:18:43.441Z,8.19
2024-05-09T00:21:13.156Z,8.05
2024-05-09T00:23:42.347Z,8.04
2024-05-09T00:26:15.418Z,8.11
2024-05-09T00:28:44.499Z,8.07
2024-05-09T00:31:13.544Z,7.93
2024-05-09T00:33:42.549Z,8.07
2024-05-09T00:36:11.835Z,8.16
2024-05-09T00:38:47.322Z,8.19
2024-05-09T00:41:18.890Z,8.14
2024-05-09T00:43:48.241Z,8.15
2024-05-09T00:46:17.674Z,8.11
2024-05-09T00:48:47.201Z,8.12
2024-05-09T00:51:17.029Z,8.08
2024-05-09T00:53:47.081Z,7.86
2024-05-09T00:56:16.805Z,7.88
2024-05-09T00:58:45.975Z,7.90
2024-05-09T01:01:18.861Z,7.83
2024-05-09T01:03:51.194Z,7.72
2024-05-09T01:06:21.225Z,7.59
2024-05-09T01:08:50.737Z,7.56
2024-05-09T01:11:20.690Z,7.56
2024-05-09T01:13:49.838Z,7.58
2024-05-09T01:16:18.490Z,7.57
2024-05-09T01:18:47.686Z,7.47
2024-05-09T01:21:17.150Z,7.45
2024-05-09T01:23:46.406Z,7.31
2024-05-09T01:26:15.199Z,7.25
2024-05-09T01:28:44.397Z,7.18
2024-05-09T01:31:15.752Z,7.20
2024-05-09T01:33:44.970Z,7.17
2024-05-09T01:36:14.178Z,7.19
2024-05-09T01:38:42.769Z,7.25
2024-05-09T01:41:11.925Z,7.28
2024-05-09T01:43:41.032Z,7.31
2024-05-09T01:46:15.070Z,7.31
2024-05-09T01:48:44.356Z,7.13
2024-05-09T01:51:13.574Z,7.03
2024-05-09T01:53:43.546Z,7.12
2024-05-09T01:56:12.752Z,7.10
2024-05-09T01:58:41.955Z,6.99
2024-05-09T02:01:11.368Z,6.86
2024-05-09T02:03:40.739Z,6.84
2024-05-09T02:06:09.732Z,6.80
2024-05-09T02:08:39.236Z,6.85
2024-05-09T02:11:10.394Z,6.93
2024-05-09T02:13:41.243Z,7.03
2024-05-09T02:16:14.464Z,7.00
2024-05-09T02:18:43.600Z,6.79
2024-05-09T02:21:12.831Z,6.77
2024-05-09T02:23:42.017Z,6.64
2024-05-09T02:26:11.299Z,6.55
2024-05-09T02:28:40.622Z,6.45
2024-05-09T02:31:13.168Z,6.53
2024-05-09T02:33:42.377Z,6.53
2024-05-09T02:36:12.413Z,6.38
2024-05-09T02:38:41.525Z,6.26
2024-05-09T02:41:10.867Z,6.20
2024-05-09T02:43:40.135Z,6.27
2024-05-09T02:46:09.236Z,6.47
2024-05-09T02:48:38.461Z,6.52
2024-05-09T02:51:07.581Z,6.55
2024-05-09T02:53:36.200Z,6.46
2024-05-09T02:56:05.888Z,6.49
2024-05-09T02:58:34.972Z,6.41
2024-05-09T03:01:04.089Z,6.21
2024-05-09T03:03:33.596Z,6.02
2024-05-09T03:06:02.522Z,6.02
2024-05-09T03:08:31.684Z,6.03
2024-05-09T03:11:00.430Z,6.18
2024-05-09T03:13:29.546Z,6.10
2024-05-09T03:15:59.852Z,6.01
2024-05-09T03:18:28.945Z,6.03
2024-05-09T03:20:58.132Z,6.02
2024-05-09T03:23:26.809Z,6.10
2024-05-09T03:25:55.869Z,6.12
2024-05-09T03:28:24.487Z,6.07
2024-05-09T03:30:53.009Z,6.10
2024-05-09T03:33:22.556Z,6.26
2024-05-09T03:35:51.849Z,6.33
2024-05-09T03:38:20.505Z,6.42
2024-05-09T03:40:50.887Z,6.46
2024-05-09T03:43:20.315Z,6.40
2024-05-09T03:45:50.536Z,6.17
2024-05-09T03:48:20.132Z,6.03
2024-05-09T03:50:50.390Z,6.06
2024-05-09T03:53:19.673Z,6.10
2024-05-09T03:55:49.700Z,6.13
2024-05-09T03:58:19.030Z,6.17
2024-05-09T04:00:48.369Z,6.19
2024-05-09T04:03:17.188Z,6.22
2024-05-09T04:05:46.631Z,6.19
2024-05-09T04:08:15.789Z,6.21
2024-05-09T04:10:45.185Z,6.28
2024-05-09T04:13:14.343Z,6.32
2024-05-09T04:15:43.298Z,6.41
2024-05-09T04:18:12.746Z,6.45
2024-05-09T04:20:41.661Z,6.49
2024-05-09T04:23:13.557Z,6.56
2024-05-09T04:25:45.078Z,6.67
2024-05-09T04:28:14.798Z,6.78
2024-05-09T04:30:43.961Z,6.87
2024-05-09T04:33:14.788Z,7.01
2024-05-09T04:35:45.126Z,6.99
2024-05-09T04:38:15.493Z,7.09
2024-05-09T04:40:45.177Z,7.21
2024-05-09T04:43:16.709Z,7.34
2024-05-09T04:45:45.752Z,7.37
2024-05-09T04:48:16.044Z,7.34
2024-05-09T04:50:45.438Z,7.46
2024-05-09T04:53:17.361Z,7.60
2024-05-09T04:55:46.822Z,7.71
2024-05-09T04:58:16.018Z,7.78
2024-05-09T05:00:44.732Z,7.89
2024-05-09T05:03:16.068Z,8.07
2024-05-09T05:05:48.195Z,8.05
2024-05-09T05:08:18.876Z,8.20
2024-05-09T05:10:49.119Z,8.27
2024-05-09T05:13:24.682Z,8.33
2024-05-09T05:15:56.780Z,8.36
2024-05-09T05:18:27.946Z,8.49
2024-05-09T05:20:58.523Z,8.63
2024-05-09T05:23:27.859Z,8.74
2024-05-09T05:25:57.142Z,8.86
2024-05-09T05:28:26.453Z,9.01
2024-05-09T05:30:55.369Z,9.09
2024-05-09T05:33:24.644Z,9.18
2024-05-09T05:35:53.722Z,9.23
2024-05-09T05:38:26.040Z,9.29
2024-05-09T05:40:57.076Z,9.20
2024-05-09T05:43:26.251Z,9.29
2024-05-09T05:45:54.872Z,9.38
2024-05-09T05:48:24.074Z,9.38
2024-05-09T05:50:53.186Z,9.50
2024-05-09T05:53:22.431Z,9.61
2024-05-09T05:55:51.700Z,9.59
2024-05-09T05:58:21.458Z,9.32
2024-05-09T06:00:52.828Z,9.38
2024-05-09T06:03:22.046Z,9.55
2024-05-09T06:05:51.101Z,9.65
2024-05-09T06:08:20.413Z,9.82
2024-05-09T06:10:49.847Z,10.04
2024-05-09T06:13:20.300Z,10.10
2024-05-09T06:15:49.419Z,10.01
2024-05-09T06:18:18.772Z,10.01
2024-05-09T06:20:47.684Z,9.95
2024-05-09T06:23:16.959Z,10.36
2024-05-09T06:25:45.638Z,10.60
2024-05-09T06:28:14.793Z,10.57
2024-05-09T06:30:43.944Z,10.64
2024-05-09T06:33:15.335Z,10.51
2024-05-09T06:35:46.082Z,10.68
2024-05-09T06:38:15.410Z,10.76
2024-05-09T06:40:45.019Z,10.85
2024-05-09T06:43:17.124Z,10.98
2024-05-09T06:45:54.011Z,11.03
2024-05-09T06:48:23.467Z,11.02
2024-05-09T06:50:52.746Z,11.19
2024-05-09T06:53:23.285Z,11.40
2024-05-09T06:55:52.596Z,11.48
2024-05-09T06:58:21.799Z,11.45
2024-05-09T07:00:50.609Z,11.70
2024-05-09T07:03:20.153Z,11.66
2024-05-09T07:05:50.108Z,11.90
2024-05-09T07:08:19.681Z,12.00
2024-05-09T07:10:49.524Z,12.31
2024-05-09T07:13:18.672Z,12.29
2024-05-09T07:15:47.654Z,12.25
2024-05-09T07:18:18.298Z,12.49
2024-05-09T07:20:49.592Z,12.65
2024-05-09T07:23:19.874Z,12.88
2024-05-09T07:25:49.104Z,12.85
2024-05-09T07:28:21.260Z,12.78
2024-05-09T07:30:50.344Z,12.86
2024-05-09T07:33:22.479Z,12.76
2024-05-09T07:35:52.693Z,12.98
2024-05-09T07:38:22.298Z,12.93
2024-05-09T07:40:51.596Z,13.23
2024-05-09T07:43:20.754Z,13.38
2024-05-09T07:45:53.684Z,13.34
2024-05-09T07:52:45.983Z,13.07
2024-05-09T07:53:50.780Z,13.16
2024-05-09T07:56:23.946Z,13.31
2024-05-09T07:58:54.515Z,13.47
2024-05-09T08:01:26.352Z,13.51
2024-05-09T08:03:55.829Z,13.79
2024-05-09T08:06:25.473Z,13.97
2024-05-09T08:08:54.528Z,13.99
2024-05-09T08:11:23.914Z,14.40
2024-05-09T08:13:53.087Z,14.81
2024-05-09T08:16:22.730Z,14.79
2024-05-09T08:18:52.142Z,14.37
2024-05-09T08:21:21.279Z,14.72
2024-05-09T08:23:50.001Z,14.44
2024-05-09T08:26:19.226Z,14.64
2024-05-09T08:28:48.738Z,15.08
2024-05-09T08:31:17.769Z,14.77
2024-05-09T08:33:47.942Z,14.89
2024-05-09T08:36:17.868Z,15.19
2024-05-09T08:38:47.034Z,15.01
2024-05-09T08:41:15.973Z,14.57
2024-05-09T08:43:46.359Z,15.01
2024-05-09T08:46:18.155Z,15.32
2024-05-09T08:48:49.341Z,15.52
2024-05-09T08:51:18.717Z,14.99
2024-05-09T08:53:47.750Z,14.65
2024-05-09T08:56:18.677Z,15.41
2024-05-09T08:58:49.814Z,15.77
2024-05-09T09:01:19.527Z,15.94
2024-05-09T09:03:51.186Z,15.51
2024-05-09T09:06:21.756Z,15.40
2024-05-09T09:08:51.133Z,16.23
2024-05-09T09:11:20.136Z,16.79
2024-05-09T09:13:49.414Z,16.83
2024-05-09T09:16:18.593Z,15.62
2024-05-09T09:18:48.156Z,15.69
2024-05-09T09:21:17.772Z,15.93
2024-05-09T09:23:46.817Z,15.81
2024-05-09T09:26:16.536Z,16.08
2024-05-09T09:28:46.665Z,15.97
2024-05-09T09:31:19.348Z,16.01
2024-05-09T09:33:48.657Z,16.08
2024-05-09T09:36:18.240Z,15.95
2024-05-09T09:38:47.740Z,16.42
2024-05-09T09:41:17.532Z,16.43
2024-05-09T09:43:47.926Z,16.19
2024-05-09T09:46:19.059Z,15.64
2024-05-09T09:48:48.993Z,15.88
2024-05-09T09:51:19.535Z,16.38
2024-05-09T09:53:52.215Z,16.68
2024-05-09T09:56:21.555Z,16.54
2024-05-09T09:58:51.668Z,16.73
2024-05-09T10:01:20.831Z,17.01
2024-05-09T10:03:50.082Z,16.84
2024-05-09T10:06:19.900Z,17.22
2024-05-09T10:08:50.053Z,17.15
2024-05-09T10:11:22.540Z,17.19
2024-05-09T10:13:53.438Z,16.77
2024-05-09T10:16:23.402Z,16.95
2024-05-09T10:18:52.951Z,17.09
2024-05-09T10:21:21.994Z,17.85
2024-05-09T10:24:01.818Z,18.06
2024-05-09T10:26:33.682Z,17.38
2024-05-09T10:29:17.450Z,16.47
2024-05-09T10:31:47.476Z,16.33
2024-05-09T10:34:22.425Z,16.51
2024-05-09T10:36:56.393Z,16.64
2024-05-09T10:39:25.839Z,16.42
2024-05-09T10:41:54.985Z,16.41
2024-05-09T10:44:23.669Z,16.92
2024-05-09T10:46:54.405Z,17.55
2024-05-09T10:49:23.845Z,17.57
2024-05-09T10:51:52.913Z,17.69
2024-05-09T10:54:22.517Z,17.79
2024-05-09T10:56:58.115Z,17.95
2024-05-09T10:59:35.654Z,17.17
2024-05-09T11:02:07.514Z,17.49
2024-05-09T11:04:38.952Z,17.91
2024-05-09T11:07:17.799Z,18.50
2024-05-09T11:09:48.539Z,18.73
2024-05-09T11:12:19.323Z,18.30
2024-05-09T11:14:55.910Z,18.26
2024-05-09T11:17:25.887Z,17.95
2024-05-09T11:19:55.103Z,17.62
2024-05-09T11:22:31.947Z,18.26
2024-05-09T11:25:00.940Z,18.86
2024-05-09T11:27:31.512Z,18.84
2024-05-09T11:30:01.544Z,18.24
2024-05-09T11:32:30.974Z,18.67
2024-05-09T11:35:00.178Z,18.50
2024-05-09T11:37:30.489Z,18.92
2024-05-09T11:40:00.186Z,18.72
2024-05-09T11:42:29.450Z,18.92
2024-05-09T11:44:58.504Z,18.89
2024-05-09T11:47:27.643Z,18.92
2024-05-09T11:49:56.923Z,19.45
2024-05-09T11:52:25.661Z,19.15
2024-05-09T11:54:54.734Z,18.66
2024-05-09T11:57:24.284Z,18.34
2024-05-09T11:59:52.933Z,18.41
2024-05-09T12:02:21.694Z,18.45
2024-05-09T12:04:51.251Z,18.74
2024-05-09T12:07:20.795Z,18.91
2024-05-09T12:09:49.578Z,19.02
2024-05-09T12:12:18.949Z,19.33
2024-05-09T12:14:47.976Z,20.24
2024-05-09T12:17:17.049Z,20.28
2024-05-09T12:19:46.147Z,20.67
2024-05-09T12:22:15.602Z,19.95
2024-05-09T12:24:44.889Z,19.46
2024-05-09T12:27:14.028Z,19.68
2024-05-09T12:29:43.318Z,19.10
2024-05-09T12:32:12.407Z,19.61
2024-05-09T12:34:41.842Z,19.53
2024-05-09T12:37:11.141Z,19.06
2024-05-09T12:39:39.873Z,18.84
2024-05-09T12:42:10.916Z,19.15
2024-05-09T12:44:41.562Z,19.91
2024-05-09T12:47:10.277Z,20.34
2024-05-09T12:49:39.497Z,18.87
2024-05-09T12:52:08.813Z,19.14
2024-05-09T12:54:38.000Z,19.62
2024-05-09T12:57:07.375Z,20.55
2024-05-09T12:59:36.103Z,20.00
2024-05-09T13:02:05.604Z,20.56
2024-05-09T13:04:35.180Z,20.62
2024-05-09T13:07:07.230Z,20.28
2024-05-09T13:09:36.442Z,20.86
2024-05-09T13:12:05.707Z,21.99
2024-05-09T13:14:34.812Z,22.25
2024-05-09T13:17:05.007Z,21.43
2024-05-09T13:19:34.323Z,20.51
2024-05-09T13:22:04.177Z,20.88
2024-05-09T13:24:33.382Z,20.85
2024-05-09T13:27:02.566Z,21.03
2024-05-09T13:29:31.414Z,21.37
2024-05-09T13:32:00.709Z,21.19
2024-05-09T13:34:29.909Z,20.70
2024-05-09T13:36:59.018Z,20.98
2024-05-09T13:39:28.227Z,20.82
2024-05-09T13:41:57.311Z,21.05
2024-05-09T13:44:26.366Z,20.73
2024-05-09T13:46:55.543Z,21.37
2024-05-09T13:49:24.876Z,20.63
2024-05-09T13:51:54.271Z,21.12
2024-05-09T13:54:23.121Z,22.25
2024-05-09T13:56:52.344Z,20.16
2024-05-09T13:59:20.942Z,20.41
2024-05-09T14:01:52.045Z,21.09
2024-05-09T14:04:21.439Z,20.64
2024-05-09T14:06:50.860Z,20.88
2024-05-09T14:09:20.092Z,20.98
2024-05-09T14:11:49.297Z,21.71
2024-05-09T14:14:17.868Z,21.85
2024-05-09T14:16:47.226Z,21.19
2024-05-09T14:19:16.947Z,20.85
2024-05-09T14:21:46.333Z,21.73
2024-05-09T14:24:15.877Z,22.10
2024-05-09T14:26:44.981Z,21.10
2024-05-09T14:29:14.154Z,22.41
2024-05-09T14:31:43.265Z,23.13
2024-05-09T14:34:12.149Z,22.75
2024-05-09T14:36:41.595Z,21.73
2024-05-09T14:39:10.786Z,21.74
2024-05-09T14:41:40.583Z,22.06
2024-05-09T14:44:11.531Z,22.16
2024-05-09T14:46:41.174Z,22.63
2024-05-09T14:49:12.322Z,22.29
2024-05-09T14:51:46.913Z,23.23
2024-05-09T14:54:16.110Z,22.59
2024-05-09T14:56:45.388Z,22.37
2024-05-09T14:59:14.165Z,22.44
2024-05-09T15:01:43.205Z,22.13
2024-05-09T15:04:12.504Z,21.64
2024-05-09T15:06:42.176Z,21.44
2024-05-09T15:09:11.340Z,21.81
2024-05-09T15:11:40.426Z,21.96
2024-05-09T15:14:09.544Z,21.84
2024-05-09T15:16:39.044Z,20.72
2024-05-09T15:19:08.878Z,20.30
2024-05-09T15:21:38.064Z,20.85
2024-05-09T15:24:07.098Z,20.60
2024-05-09T15:26:36.817Z,20.72
2024-05-09T15:29:06.004Z,21.41
2024-05-09T15:31:35.212Z,21.38
2024-05-09T15:34:04.762Z,21.61
2024-05-09T15:36:34.313Z,21.73
2024-05-09T15:39:03.416Z,21.67
2024-05-09T15:41:32.538Z,21.55
2024-05-09T15:44:01.743Z,21.55
2024-05-09T15:46:30.720Z,21.48
2024-05-09T15:49:02.019Z,20.56
2024-05-09T15:51:34.602Z,19.73
2024-05-09T15:54:03.697Z,20.64
2024-05-09T15:56:32.821Z,20.57
2024-05-09T15:59:03.802Z,20.16
2024-05-09T16:01:35.447Z,20.19
2024-05-09T16:04:05.316Z,20.08
2024-05-09T16:06:34.624Z,20.20
2024-05-09T16:09:04.386Z,20.26
2024-05-09T16:11:34.935Z,20.48
2024-05-09T16:14:04.825Z,20.50
2024-05-09T16:16:34.193Z,20.70
2024-05-09T16:19:02.904Z,20.77
2024-05-09T16:21:31.989Z,20.90
2024-05-09T16:24:01.074Z,20.89
2024-05-09T16:26:29.811Z,20.70
2024-05-09T16:28:58.884Z,20.60
2024-05-09T16:31:28.131Z,20.41
2024-05-09T16:33:57.444Z,20.23
2024-05-09T16:36:26.915Z,19.82
2024-05-09T16:38:57.280Z,19.87
2024-05-09T16:41:26.361Z,19.59
2024-05-09T16:43:57.683Z,19.71
2024-05-09T16:46:28.008Z,19.58
2024-05-09T16:48:57.379Z,19.39
2024-05-09T16:51:26.042Z,19.30
2024-05-09T16:53:55.210Z,19.37
2024-05-09T16:56:24.487Z,19.21
2024-05-09T16:58:53.468Z,19.34
2024-05-09T17:01:22.550Z,19.49
2024-05-09T17:03:51.905Z,19.35
2024-05-09T17:06:21.304Z,19.29
2024-05-09T17:08:50.391Z,19.21
2024-05-09T17:11:19.448Z,19.03
2024-05-09T17:13:48.454Z,18.94
2024-05-09T17:16:18.088Z,18.79
2024-05-09T17:18:48.597Z,18.55
2024-05-09T17:21:18.314Z,18.46
2024-05-09T17:23:47.904Z,18.43
2024-05-09T17:26:16.862Z,18.35
2024-05-09T17:28:46.275Z,18.26
2024-05-09T17:31:15.316Z,18.15
2024-05-09T17:33:44.100Z,17.98
2024-05-09T17:36:13.253Z,17.94
2024-05-09T17:38:42.316Z,18.02
2024-05-09T17:41:11.418Z,17.99
2024-05-09T17:43:40.520Z,17.89
2024-05-09T17:46:09.736Z,17.80
2024-05-09T17:48:38.652Z,17.73
2024-05-09T17:51:07.841Z,17.65
2024-05-09T17:53:36.902Z,17.53
2024-05-09T17:56:07.773Z,17.45
2024-05-09T17:58:36.829Z,17.27
2024-05-09T18:01:05.633Z,17.15
2024-05-09T18:03:34.972Z,17.04
2024-05-09T18:06:05.102Z,16.97
2024-05-09T18:08:35.004Z,16.85
2024-05-09T18:11:04.413Z,16.80
2024-05-09T18:13:33.937Z,16.73
2024-05-09T18:16:03.092Z,16.66
2024-05-09T18:18:33.350Z,16.56
2024-05-09T18:21:02.508Z,16.45
2024-05-09T18:23:32.198Z,16.39
2024-05-09T18:26:01.017Z,16.31
2024-05-09T18:28:29.972Z,16.26
2024-05-09T18:30:59.175Z,16.19
2024-05-09T18:33:28.465Z,16.12
2024-05-09T18:35:57.654Z,15.92
2024-05-09T18:38:27.096Z,15.76
2024-05-09T18:40:56.157Z,15.72
2024-05-09T18:43:31.138Z,15.74
2024-05-09T18:46:04.566Z,15.68
2024-05-09T18:48:34.341Z,15.64
2024-05-09T18:51:05.246Z,15.58
2024-05-09T18:53:34.481Z,15.55
2024-05-09T18:56:03.807Z,15.53
2024-05-09T18:58:33.543Z,15.53
2024-05-09T19:01:02.724Z,15.51
2024-05-09T19:03:31.787Z,15.44
2024-05-09T19:06:01.514Z,15.37
2024-05-09T19:08:30.862Z,15.30
2024-05-09T19:10:59.675Z,15.22
2024-05-09T19:13:28.863Z,15.21
2024-05-09T19:15:57.654Z,15.21
2024-05-09T19:18:27.356Z,15.15
2024-05-09T19:20:56.947Z,15.12
2024-05-09T19:23:25.640Z,14.93
2024-05-09T19:25:54.908Z,14.86
2024-05-09T19:28:24.061Z,14.78
2024-05-09T19:30:53.264Z,14.76
2024-05-09T19:33:22.531Z,14.71
2024-05-09T19:35:51.730Z,14.65
2024-05-09T19:38:20.790Z,14.60
2024-05-09T19:40:50.084Z,14.51
2024-05-09T19:43:19.576Z,14.64
2024-05-09T19:45:48.392Z,14.56
2024-05-09T19:48:17.985Z,14.49
2024-05-09T19:50:48.326Z,14.42
2024-05-09T19:53:20.036Z,14.33
2024-05-09T19:55:49.080Z,14.29
2024-05-09T19:58:18.109Z,14.26
2024-05-09T20:00:47.444Z,14.22
2024-05-09T20:03:16.970Z,14.19
2024-05-09T20:05:46.989Z,14.14
2024-05-09T20:08:16.946Z,14.06
2024-05-09T20:10:46.294Z,13.99
2024-05-09T20:13:16.694Z,13.95
2024-05-09T20:15:45.854Z,13.93
2024-05-09T20:18:18.504Z,13.90
2024-05-09T20:20:48.407Z,13.90
2024-05-09T20:23:18.729Z,13.85
2024-05-09T20:25:47.348Z,13.84
2024-05-09T20:28:16.571Z,13.82
2024-05-09T20:30:45.831Z,13.91
2024-05-09T20:33:15.019Z,13.80
2024-05-09T20:35:44.054Z,13.66
2024-05-09T20:38:13.058Z,13.61
2024-05-09T20:40:43.559Z,13.53
2024-05-09T20:43:13.083Z,13.48
2024-05-09T20:45:42.372Z,13.42
2024-05-09T20:48:11.761Z,13.37
2024-05-09T20:50:42.490Z,13.27
2024-05-09T20:53:13.754Z,13.16
2024-05-09T20:55:44.919Z,13.18
2024-05-09T20:58:14.964Z,13.17
2024-05-09T21:00:46.251Z,13.03
2024-05-09T21:03:17.227Z,12.97
2024-05-09T21:05:48.844Z,12.88
2024-05-09T21:08:18.357Z,12.80
2024-05-09T21:10:47.682Z,12.72
2024-05-09T21:13:16.911Z,12.72
2024-05-09T21:15:46.186Z,12.62
2024-05-09T21:18:15.524Z,12.51
2024-05-09T21:20:44.606Z,12.46
2024-05-09T21:23:13.662Z,12.58
2024-05-09T21:25:42.976Z,12.63
2024-05-09T21:28:13.167Z,12.64
2024-05-09T21:30:43.270Z,12.66
2024-05-09T21:33:14.373Z,12.69
2024-05-09T21:35:44.644Z,12.72
2024-05-09T21:38:14.996Z,12.72
2024-05-09T21:40:45.331Z,12.78
2024-05-09T21:43:14.425Z,12.80
2024-05-09T21:45:43.973Z,12.73
2024-05-09T21:48:13.294Z,12.72
2024-05-09T21:50:42.760Z,12.73
2024-05-09T21:53:13.307Z,12.75
2024-05-09T21:55:43.389Z,12.69
2024-05-09T21:58:15.627Z,12.68
2024-05-09T22:00:46.055Z,12.66
2024-05-09T22:03:15.254Z,12.64
2024-05-09T22:05:45.467Z,12.62
2024-05-09T22:08:14.766Z,12.59
2024-05-09T22:10:44.081Z,12.58
2024-05-09T22:13:13.547Z,12.59
2024-05-09T22:15:42.983Z,12.57
2024-05-09T22:18:12.400Z,12.56
2024-05-09T22:20:45.102Z,12.52
2024-05-09T22:23:15.778Z,12.56
2024-05-09T22:25:44.781Z,12.57
2024-05-09T22:28:15.360Z,12.54
2024-05-09T22:30:46.577Z,12.52
2024-05-09T22:33:16.695Z,12.47
2024-05-09T22:35:45.648Z,12.47
2024-05-09T22:38:14.698Z,12.42
2024-05-09T22:40:48.330Z,12.41
2024-05-09T22:43:22.652Z,12.49
2024-05-09T22:45:56.660Z,12.50
2024-05-09T22:48:29.361Z,12.46
2024-05-09T22:50:58.518Z,12.42
2024-05-09T22:53:28.085Z,12.37
2024-05-09T22:55:57.035Z,12.33
2024-05-09T22:58:25.984Z,12.28
2024-05-09T23:00:55.311Z,12.27
2024-05-09T23:03:24.965Z,12.21
2024-05-09T23:05:56.056Z,12.19
2024-05-09T23:08:25.233Z,12.18
2024-05-09T23:10:53.909Z,12.17
2024-05-09T23:13:23.434Z,12.17
2024-05-09T23:15:52.738Z,12.17
2024-05-09T23:18:22.235Z,12.13
2024-05-09T23:20:51.732Z,12.13
2024-05-09T23:23:21.163Z,12.16
2024-05-09T23:25:50.289Z,12.15
2024-05-09T23:28:19.410Z,12.14
2024-05-09T23:30:48.648Z,12.11
2024-05-09T23:33:18.048Z,11.83
2024-05-09T23:35:46.928Z,11.93
2024-05-09T23:38:16.037Z,12.07
2024-05-09T23:40:45.484Z,12.17
2024-05-09T23:43:15.054Z,12.13
2024-05-09T23:45:44.371Z,12.06
2024-05-09T23:48:13.503Z,12.02
2024-05-09T23:50:42.948Z,12.02
2024-05-09T23:53:13.871Z,11.99
2024-05-09T23:55:42.939Z,11.92
2024-05-09T23:58:12.360Z,11.94
